sensor_id;sensor_type;location;lat;lon;timestamp;P1;durP1;ratioP1;P2;durP2;ratioP2
7783;SDS011;19359;51.402;6.778;2024-03-23T00:52:49;3.90;;;1.15;;
7783;SDS011;19359;51.402;6.778;2024-03-23T00:55:15;4.95;;;1.10;;
7783;SDS011;19359;51.402;6.778;2024-03-23T00:57:41;6.65;;;0.90;;
7783;SDS011;19359;51.402;6.778;2024-03-23T01:00:08;1.23;;;0.77;;
7783;SDS011;19359;51.402;6.778;2024-03-23T01:02:35;4.38;;;1.13;;
7783;SDS011;19359;51.402;6.778;2024-03-23T01:05:02;2.03;;;0.63;;
7783;SDS011;19359;51.402;6.778;2024-03-23T01:07:28;4.25;;;0.50;;
7783;SDS011;19359;51.402;6.778;2024-03-23T01:09:56;2.25;;;0.73;;
7783;SDS011;19359;51.402;6.778;2024-03-23T01:12:22;2.85;;;0.88;;
7783;SDS011;19359;51.402;6.778;2024-03-23T01:14:49;2.47;;;0.65;;
7783;SDS011;19359;51.402;6.778;2024-03-23T01:17:14;1.95;;;0.38;;
7783;SDS011;19359;51.402;6.778;2024-03-23T01:19:41;4.57;;;0.82;;
7783;SDS011;19359;51.402;6.778;2024-03-23T01:22:07;7.32;;;0.80;;
7783;SDS011;19359;51.402;6.778;2024-03-23T01:24:35;3.78;;;2.03;;
7783;SDS011;19359;51.402;6.778;2024-03-23T01:27:02;7.40;;;0.82;;
7783;SDS011;19359;51.402;6.778;2024-03-23T01:29:29;1.88;;;0.88;;
7783;SDS011;19359;51.402;6.778;2024-03-23T01:31:55;0.88;;;0.88;;
7783;SDS011;19359;51.402;6.778;2024-03-23T01:34:21;4.10;;;0.50;;
7783;SDS011;19359;51.402;6.778;2024-03-23T01:36:47;0.70;;;0.38;;
7783;SDS011;19359;51.402;6.778;2024-03-23T01:39:14;2.97;;;0.85;;
7783;SDS011;19359;51.402;6.778;2024-03-23T01:41:40;0.60;;;0.40;;
7783;SDS011;19359;51.402;6.778;2024-03-23T01:44:09;1.23;;;0.50;;
7783;SDS011;19359;51.402;6.778;2024-03-23T01:46:36;1.92;;;1.00;;
7783;SDS011;19359;51.402;6.778;2024-03-23T01:49:03;1.65;;;0.57;;
7783;SDS011;19359;51.402;6.778;2024-03-23T01:51:30;0.88;;;0.22;;
7783;SDS011;19359;51.402;6.778;2024-03-23T01:53:58;1.75;;;0.43;;
7783;SDS011;19359;51.402;6.778;2024-03-23T01:56:25;3.30;;;0.52;;
7783;SDS011;19359;51.402;6.778;2024-03-23T01:58:52;1.75;;;0.88;;
7783;SDS011;19359;51.402;6.778;2024-03-23T02:01:19;9.32;;;1.55;;
7783;SDS011;19359;51.402;6.778;2024-03-23T02:03:46;1.42;;;0.52;;
7783;SDS011;19359;51.402;6.778;2024-03-23T02:06:12;0.60;;;0.60;;
7783;SDS011;19359;51.402;6.778;2024-03-23T02:08:39;3.60;;;0.60;;
7783;SDS011;19359;51.402;6.778;2024-03-23T02:11:05;1.83;;;0.82;;
7783;SDS011;19359;51.402;6.778;2024-03-23T02:13:32;1.42;;;0.50;;
7783;SDS011;19359;51.402;6.778;2024-03-23T02:15:58;3.35;;;0.60;;
7783;SDS011;19359;51.402;6.778;2024-03-23T02:18:26;2.70;;;0.40;;
7783;SDS011;19359;51.402;6.778;2024-03-23T02:20:52;4.63;;;0.57;;
7783;SDS011;19359;51.402;6.778;2024-03-23T02:23:20;1.38;;;0.40;;
7783;SDS011;19359;51.402;6.778;2024-03-23T02:25:46;1.17;;;0.60;;
7783;SDS011;19359;51.402;6.778;2024-03-23T02:28:13;2.45;;;0.85;;
7783;SDS011;19359;51.402;6.778;2024-03-23T02:30:38;3.15;;;0.70;;
7783;SDS011;19359;51.402;6.778;2024-03-23T02:33:05;0.55;;;0.50;;
7783;SDS011;19359;51.402;6.778;2024-03-23T02:35:31;2.35;;;0.60;;
7783;SDS011;19359;51.402;6.778;2024-03-23T02:37:58;0.82;;;0.80;;
7783;SDS011;19359;51.402;6.778;2024-03-23T02:40:25;3.10;;;0.98;;
7783;SDS011;19359;51.402;6.778;2024-03-23T02:42:53;2.20;;;1.10;;
7783;SDS011;19359;51.402;6.778;2024-03-23T02:45:19;9.20;;;1.15;;
7783;SDS011;19359;51.402;6.778;2024-03-23T02:47:46;4.55;;;0.85;;
7783;SDS011;19359;51.402;6.778;2024-03-23T02:50:12;5.88;;;0.60;;
7783;SDS011;19359;51.402;6.778;2024-03-23T02:52:40;1.63;;;0.93;;
7783;SDS011;19359;51.402;6.778;2024-03-23T02:55:06;9.45;;;1.17;;
7783;SDS011;19359;51.402;6.778;2024-03-23T02:57:35;1.85;;;0.80;;
7783;SDS011;19359;51.402;6.778;2024-03-23T03:00:00;4.13;;;0.93;;
7783;SDS011;19359;51.402;6.778;2024-03-23T03:02:27;2.72;;;0.70;;
7783;SDS011;19359;51.402;6.778;2024-03-23T03:04:53;2.30;;;0.77;;
7783;SDS011;19359;51.402;6.778;2024-03-23T03:07:20;10.35;;;1.00;;
7783;SDS011;19359;51.402;6.778;2024-03-23T03:09:45;2.30;;;0.70;;
7783;SDS011;19359;51.402;6.778;2024-03-23T03:12:12;5.57;;;0.85;;
7783;SDS011;19359;51.402;6.778;2024-03-23T03:14:39;0.50;;;0.50;;
7783;SDS011;19359;51.402;6.778;2024-03-23T03:17:06;4.47;;;0.75;;
7783;SDS011;19359;51.402;6.778;2024-03-23T03:19:32;1.83;;;0.38;;
7783;SDS011;19359;51.402;6.778;2024-03-23T03:21:58;1.25;;;1.15;;
7783;SDS011;19359;51.402;6.778;2024-03-23T03:24:24;2.70;;;0.50;;
7783;SDS011;19359;51.402;6.778;2024-03-23T03:26:51;4.78;;;0.65;;
7783;SDS011;19359;51.402;6.778;2024-03-23T03:29:17;1.15;;;0.70;;
7783;SDS011;19359;51.402;6.778;2024-03-23T03:31:45;2.28;;;0.65;;
7783;SDS011;19359;51.402;6.778;2024-03-23T03:34:11;2.25;;;0.60;;
7783;SDS011;19359;51.402;6.778;2024-03-23T03:36:38;5.40;;;0.82;;
7783;SDS011;19359;51.402;6.778;2024-03-23T03:39:04;2.20;;;0.50;;
7783;SDS011;19359;51.402;6.778;2024-03-23T03:41:31;2.60;;;0.82;;
7783;SDS011;19359;51.402;6.778;2024-03-23T03:43:57;4.22;;;0.52;;
7783;SDS011;19359;51.402;6.778;2024-03-23T03:46:26;0.73;;;0.38;;
7783;SDS011;19359;51.402;6.778;2024-03-23T03:48:54;4.93;;;1.20;;
7783;SDS011;19359;51.402;6.778;2024-03-23T03:51:20;2.17;;;0.73;;
7783;SDS011;19359;51.402;6.778;2024-03-23T03:53:46;1.75;;;0.60;;
7783;SDS011;19359;51.402;6.778;2024-03-23T03:56:13;2.47;;;0.77;;
7783;SDS011;19359;51.402;6.778;2024-03-23T03:58:39;0.95;;;0.57;;
7783;SDS011;19359;51.402;6.778;2024-03-23T04:01:06;3.03;;;0.32;;
7783;SDS011;19359;51.402;6.778;2024-03-23T04:03:31;2.55;;;0.50;;
7783;SDS011;19359;51.402;6.778;2024-03-23T04:05:59;5.82;;;0.80;;
7783;SDS011;19359;51.402;6.778;2024-03-23T04:08:25;4.35;;;0.73;;
7783;SDS011;19359;51.402;6.778;2024-03-23T04:10:52;3.28;;;0.63;;
7783;SDS011;19359;51.402;6.778;2024-03-23T04:13:18;1.05;;;1.05;;
7783;SDS011;19359;51.402;6.778;2024-03-23T04:15:44;2.15;;;0.75;;
7783;SDS011;19359;51.402;6.778;2024-03-23T04:18:10;2.40;;;0.22;;
7783;SDS011;19359;51.402;6.778;2024-03-23T04:20:37;2.35;;;0.52;;
7783;SDS011;19359;51.402;6.778;2024-03-23T04:23:04;3.80;;;1.05;;
7783;SDS011;19359;51.402;6.778;2024-03-23T04:25:30;0.63;;;0.63;;
7783;SDS011;19359;51.402;6.778;2024-03-23T04:27:56;1.35;;;1.08;;
7783;SDS011;19359;51.402;6.778;2024-03-23T04:30:23;7.65;;;0.95;;
7783;SDS011;19359;51.402;6.778;2024-03-23T04:32:50;5.60;;;1.25;;
7783;SDS011;19359;51.402;6.778;2024-03-23T04:35:17;1.40;;;0.77;;
7783;SDS011;19359;51.402;6.778;2024-03-23T04:37:44;3.67;;;0.90;;
7783;SDS011;19359;51.402;6.778;2024-03-23T04:40:12;1.27;;;0.93;;
7783;SDS011;19359;51.402;6.778;2024-03-23T04:42:39;1.85;;;0.73;;
7783;SDS011;19359;51.402;6.778;2024-03-23T04:45:06;2.10;;;0.93;;
7783;SDS011;19359;51.402;6.778;2024-03-23T04:47:33;5.95;;;1.40;;
7783;SDS011;19359;51.402;6.778;2024-03-23T04:50:01;3.35;;;1.02;;
7783;SDS011;19359;51.402;6.778;2024-03-23T04:52:28;3.13;;;1.00;;
7783;SDS011;19359;51.402;6.778;2024-03-23T04:54:54;1.88;;;1.42;;
7783;SDS011;19359;51.402;6.778;2024-03-23T04:57:23;3.45;;;1.33;;
7783;SDS011;19359;51.402;6.778;2024-03-23T04:59:49;1.52;;;1.35;;
7783;SDS011;19359;51.402;6.778;2024-03-23T05:02:15;3.45;;;1.00;;
7783;SDS011;19359;51.402;6.778;2024-03-23T05:04:41;1.40;;;0.70;;
7783;SDS011;19359;51.402;6.778;2024-03-23T05:07:08;4.30;;;0.75;;
7783;SDS011;19359;51.402;6.778;2024-03-23T05:09:34;7.32;;;2.10;;
7783;SDS011;19359;51.402;6.778;2024-03-23T05:12:00;0.95;;;0.77;;
7783;SDS011;19359;51.402;6.778;2024-03-23T05:14:28;2.00;;;1.17;;
7783;SDS011;19359;51.402;6.778;2024-03-23T05:16:54;4.75;;;1.45;;
7783;SDS011;19359;51.402;6.778;2024-03-23T05:19:21;5.18;;;0.77;;
7783;SDS011;19359;51.402;6.778;2024-03-23T05:21:48;6.97;;;1.30;;
7783;SDS011;19359;51.402;6.778;2024-03-23T05:24:14;5.32;;;1.55;;
7783;SDS011;19359;51.402;6.778;2024-03-23T05:26:40;1.52;;;1.42;;
7783;SDS011;19359;51.402;6.778;2024-03-23T05:29:06;12.98;;;2.33;;
7783;SDS011;19359;51.402;6.778;2024-03-23T05:31:37;3.85;;;1.63;;
7783;SDS011;19359;51.402;6.778;2024-03-23T05:34:03;3.92;;;1.58;;
7783;SDS011;19359;51.402;6.778;2024-03-23T05:36:29;6.80;;;2.10;;
7783;SDS011;19359;51.402;6.778;2024-03-23T05:38:55;1.63;;;1.52;;
7783;SDS011;19359;51.402;6.778;2024-03-23T05:41:22;3.15;;;1.95;;
7783;SDS011;19359;51.402;6.778;2024-03-23T05:43:49;4.78;;;1.80;;
7783;SDS011;19359;51.402;6.778;2024-03-23T05:46:16;4.05;;;1.33;;
7783;SDS011;19359;51.402;6.778;2024-03-23T05:48:44;5.35;;;1.90;;
7783;SDS011;19359;51.402;6.778;2024-03-23T05:51:11;4.10;;;2.58;;
7783;SDS011;19359;51.402;6.778;2024-03-23T05:53:37;2.67;;;2.42;;
7783;SDS011;19359;51.402;6.778;2024-03-23T05:56:04;5.60;;;2.67;;
7783;SDS011;19359;51.402;6.778;2024-03-23T05:58:31;2.83;;;1.33;;
7783;SDS011;19359;51.402;6.778;2024-03-23T06:00:58;2.13;;;1.90;;
7783;SDS011;19359;51.402;6.778;2024-03-23T06:03:24;7.93;;;2.13;;
7783;SDS011;19359;51.402;6.778;2024-03-23T06:05:53;6.82;;;2.55;;
7783;SDS011;19359;51.402;6.778;2024-03-23T06:08:19;4.50;;;2.15;;
7783;SDS011;19359;51.402;6.778;2024-03-23T06:10:46;17.75;;;3.45;;
7783;SDS011;19359;51.402;6.778;2024-03-23T06:13:12;7.10;;;2.03;;
7783;SDS011;19359;51.402;6.778;2024-03-23T06:15:38;8.90;;;2.80;;
7783;SDS011;19359;51.402;6.778;2024-03-23T06:18:04;4.43;;;2.00;;
7783;SDS011;19359;51.402;6.778;2024-03-23T06:20:32;4.70;;;3.33;;
7783;SDS011;19359;51.402;6.778;2024-03-23T06:23:00;4.07;;;2.40;;
7783;SDS011;19359;51.402;6.778;2024-03-23T06:25:26;8.82;;;3.28;;
7783;SDS011;19359;51.402;6.778;2024-03-23T06:27:52;5.30;;;3.17;;
7783;SDS011;19359;51.402;6.778;2024-03-23T06:30:19;2.72;;;2.53;;
7783;SDS011;19359;51.402;6.778;2024-03-23T06:32:44;9.18;;;4.35;;
7783;SDS011;19359;51.402;6.778;2024-03-23T06:35:11;5.28;;;3.17;;
7783;SDS011;19359;51.402;6.778;2024-03-23T06:37:37;10.80;;;3.88;;
7783;SDS011;19359;51.402;6.778;2024-03-23T06:40:06;9.73;;;4.57;;
7783;SDS011;19359;51.402;6.778;2024-03-23T06:42:34;3.75;;;3.25;;
7783;SDS011;19359;51.402;6.778;2024-03-23T06:45:01;9.38;;;3.50;;
7783;SDS011;19359;51.402;6.778;2024-03-23T06:47:29;14.63;;;3.63;;
7783;SDS011;19359;51.402;6.778;2024-03-23T06:49:56;9.75;;;2.88;;
7783;SDS011;19359;51.402;6.778;2024-03-23T06:52:22;5.05;;;3.75;;
7783;SDS011;19359;51.402;6.778;2024-03-23T06:54:49;9.52;;;3.53;;
7783;SDS011;19359;51.402;6.778;2024-03-23T06:57:17;9.38;;;3.58;;
7783;SDS011;19359;51.402;6.778;2024-03-23T06:59:42;6.35;;;3.03;;
7783;SDS011;19359;51.402;6.778;2024-03-23T07:02:09;3.75;;;3.05;;
7783;SDS011;19359;51.402;6.778;2024-03-23T07:04:35;9.68;;;3.33;;
7783;SDS011;19359;51.402;6.778;2024-03-23T07:07:02;8.07;;;2.95;;
7783;SDS011;19359;51.402;6.778;2024-03-23T07:09:28;3.30;;;2.42;;
7783;SDS011;19359;51.402;6.778;2024-03-23T07:11:56;4.20;;;2.67;;
7783;SDS011;19359;51.402;6.778;2024-03-23T07:14:23;5.00;;;3.08;;
7783;SDS011;19359;51.402;6.778;2024-03-23T07:16:50;6.53;;;2.67;;
7783;SDS011;19359;51.402;6.778;2024-03-23T07:19:16;5.15;;;3.53;;
7783;SDS011;19359;51.402;6.778;2024-03-23T07:21:43;5.75;;;2.30;;
7783;SDS011;19359;51.402;6.778;2024-03-23T07:24:09;5.20;;;2.88;;
7783;SDS011;19359;51.402;6.778;2024-03-23T07:26:36;7.68;;;3.80;;
7783;SDS011;19359;51.402;6.778;2024-03-23T07:29:03;10.77;;;3.38;;
7783;SDS011;19359;51.402;6.778;2024-03-23T07:31:31;9.85;;;3.13;;
7783;SDS011;19359;51.402;6.778;2024-03-23T07:33:57;8.55;;;2.72;;
7783;SDS011;19359;51.402;6.778;2024-03-23T07:36:24;4.38;;;2.78;;
7783;SDS011;19359;51.402;6.778;2024-03-23T07:38:50;17.85;;;3.22;;
7783;SDS011;19359;51.402;6.778;2024-03-23T07:41:17;6.25;;;2.97;;
7783;SDS011;19359;51.402;6.778;2024-03-23T07:43:45;8.95;;;3.53;;
7783;SDS011;19359;51.402;6.778;2024-03-23T07:46:13;6.65;;;2.20;;
7783;SDS011;19359;51.402;6.778;2024-03-23T07:48:41;5.95;;;3.22;;
7783;SDS011;19359;51.402;6.778;2024-03-23T07:51:08;5.00;;;3.72;;
7783;SDS011;19359;51.402;6.778;2024-03-23T07:53:35;11.30;;;2.08;;
7783;SDS011;19359;51.402;6.778;2024-03-23T07:56:04;5.55;;;2.72;;
7783;SDS011;19359;51.402;6.778;2024-03-23T07:58:30;2.92;;;2.10;;
7783;SDS011;19359;51.402;6.778;2024-03-23T08:01:03;10.38;;;2.42;;
7783;SDS011;19359;51.402;6.778;2024-03-23T08:03:30;7.45;;;2.25;;
7783;SDS011;19359;51.402;6.778;2024-03-23T08:05:57;6.93;;;1.17;;
7783;SDS011;19359;51.402;6.778;2024-03-23T08:08:25;5.57;;;1.52;;
7783;SDS011;19359;51.402;6.778;2024-03-23T08:10:51;7.60;;;1.58;;
7783;SDS011;19359;51.402;6.778;2024-03-23T08:13:18;5.70;;;2.47;;
7783;SDS011;19359;51.402;6.778;2024-03-23T08:15:44;3.50;;;1.33;;
7783;SDS011;19359;51.402;6.778;2024-03-23T08:18:12;2.17;;;1.95;;
7783;SDS011;19359;51.402;6.778;2024-03-23T08:20:38;2.65;;;1.95;;
7783;SDS011;19359;51.402;6.778;2024-03-23T08:23:06;3.85;;;1.58;;
7783;SDS011;19359;51.402;6.778;2024-03-23T08:25:32;9.48;;;2.70;;
7783;SDS011;19359;51.402;6.778;2024-03-23T08:27:58;1.40;;;1.30;;
7783;SDS011;19359;51.402;6.778;2024-03-23T08:30:24;4.40;;;1.88;;
7783;SDS011;19359;51.402;6.778;2024-03-23T08:32:51;5.80;;;1.83;;
7783;SDS011;19359;51.402;6.778;2024-03-23T08:35:17;0.65;;;0.65;;
7783;SDS011;19359;51.402;6.778;2024-03-23T08:37:44;3.53;;;0.93;;
7783;SDS011;19359;51.402;6.778;2024-03-23T08:40:11;3.70;;;0.80;;
7783;SDS011;19359;51.402;6.778;2024-03-23T08:42:38;1.83;;;0.85;;
7783;SDS011;19359;51.402;6.778;2024-03-23T08:45:04;2.15;;;0.40;;
7783;SDS011;19359;51.402;6.778;2024-03-23T08:47:33;0.68;;;0.40;;
7783;SDS011;19359;51.402;6.778;2024-03-23T08:50:00;0.65;;;0.65;;
7783;SDS011;19359;51.402;6.778;2024-03-23T08:52:26;2.38;;;0.50;;
7783;SDS011;19359;51.402;6.778;2024-03-23T08:54:54;1.10;;;0.40;;
7783;SDS011;19359;51.402;6.778;2024-03-23T08:57:23;1.48;;;0.50;;
7783;SDS011;19359;51.402;6.778;2024-03-23T08:59:49;0.90;;;0.60;;
7783;SDS011;19359;51.402;6.778;2024-03-23T09:02:16;2.05;;;0.85;;
7783;SDS011;19359;51.402;6.778;2024-03-23T09:04:42;2.35;;;1.02;;
7783;SDS011;19359;51.402;6.778;2024-03-23T09:07:10;1.70;;;1.60;;
7783;SDS011;19359;51.402;6.778;2024-03-23T09:09:37;2.42;;;2.08;;
7783;SDS011;19359;51.402;6.778;2024-03-23T09:12:04;3.22;;;1.33;;
7783;SDS011;19359;51.402;6.778;2024-03-23T09:14:32;5.43;;;1.17;;
7783;SDS011;19359;51.402;6.778;2024-03-23T09:16:58;9.18;;;1.98;;
7783;SDS011;19359;51.402;6.778;2024-03-23T09:19:26;5.88;;;1.63;;
7783;SDS011;19359;51.402;6.778;2024-03-23T09:21:54;4.28;;;2.13;;
7783;SDS011;19359;51.402;6.778;2024-03-23T09:24:19;9.80;;;1.38;;
7783;SDS011;19359;51.402;6.778;2024-03-23T09:26:46;2.40;;;1.55;;
7783;SDS011;19359;51.402;6.778;2024-03-23T09:29:12;3.53;;;1.40;;
7783;SDS011;19359;51.402;6.778;2024-03-23T09:31:40;4.30;;;1.88;;
7783;SDS011;19359;51.402;6.778;2024-03-23T09:34:06;2.13;;;1.52;;
7783;SDS011;19359;51.402;6.778;2024-03-23T09:36:33;4.38;;;1.10;;
7783;SDS011;19359;51.402;6.778;2024-03-23T09:38:59;7.00;;;1.75;;
7783;SDS011;19359;51.402;6.778;2024-03-23T09:41:25;8.05;;;1.23;;
7783;SDS011;19359;51.402;6.778;2024-03-23T09:43:52;6.45;;;1.50;;
7783;SDS011;19359;51.402;6.778;2024-03-23T09:46:19;4.13;;;1.17;;
7783;SDS011;19359;51.402;6.778;2024-03-23T09:48:46;4.13;;;1.23;;
7783;SDS011;19359;51.402;6.778;2024-03-23T09:51:13;1.38;;;1.05;;
7783;SDS011;19359;51.402;6.778;2024-03-23T09:53:39;0.80;;;0.70;;
7783;SDS011;19359;51.402;6.778;2024-03-23T09:56:07;1.42;;;0.95;;
7783;SDS011;19359;51.402;6.778;2024-03-23T09:58:33;2.58;;;1.17;;
7783;SDS011;19359;51.402;6.778;2024-03-23T10:01:00;1.20;;;1.02;;
7783;SDS011;19359;51.402;6.778;2024-03-23T10:03:27;1.85;;;0.50;;
7783;SDS011;19359;51.402;6.778;2024-03-23T10:06:04;6.13;;;1.05;;
7783;SDS011;19359;51.402;6.778;2024-03-23T10:08:31;4.28;;;1.30;;
7783;SDS011;19359;51.402;6.778;2024-03-23T10:10:58;2.17;;;0.95;;
7783;SDS011;19359;51.402;6.778;2024-03-23T10:13:41;0.93;;;0.50;;
7783;SDS011;19359;51.402;6.778;2024-03-23T10:16:07;4.63;;;0.47;;
7783;SDS011;19359;51.402;6.778;2024-03-23T10:18:36;1.58;;;0.98;;
7783;SDS011;19359;51.402;6.778;2024-03-23T10:21:10;1.42;;;0.63;;
7783;SDS011;19359;51.402;6.778;2024-03-23T10:23:38;2.65;;;0.85;;
7783;SDS011;19359;51.402;6.778;2024-03-23T10:26:12;4.32;;;1.08;;
7783;SDS011;19359;51.402;6.778;2024-03-23T10:28:50;2.03;;;0.70;;
7783;SDS011;19359;51.402;6.778;2024-03-23T10:31:22;4.43;;;0.50;;
7783;SDS011;19359;51.402;6.778;2024-03-23T10:33:48;5.00;;;0.80;;
7783;SDS011;19359;51.402;6.778;2024-03-23T10:36:16;3.63;;;0.40;;
7783;SDS011;19359;51.402;6.778;2024-03-23T10:38:45;0.10;;;0.10;;
7783;SDS011;19359;51.402;6.778;2024-03-23T10:41:12;0.75;;;0.17;;
7783;SDS011;19359;51.402;6.778;2024-03-23T10:43:38;3.55;;;0.40;;
7783;SDS011;19359;51.402;6.778;2024-03-23T10:46:05;0.03;;;0.03;;
7783;SDS011;19359;51.402;6.778;2024-03-23T10:48:32;0.57;;;0.20;;
7783;SDS011;19359;51.402;6.778;2024-03-23T10:50:58;0.08;;;0.08;;
7783;SDS011;19359;51.402;6.778;2024-03-23T10:53:26;0.20;;;0.20;;
7783;SDS011;19359;51.402;6.778;2024-03-23T10:55:54;0.20;;;0.20;;
7783;SDS011;19359;51.402;6.778;2024-03-23T10:58:23;1.27;;;0.30;;
7783;SDS011;19359;51.402;6.778;2024-03-23T11:00:52;0.60;;;0.60;;
7783;SDS011;19359;51.402;6.778;2024-03-23T11:03:29;0.95;;;0.30;;
7783;SDS011;19359;51.402;6.778;2024-03-23T11:05:55;3.33;;;0.30;;
7783;SDS011;19359;51.402;6.778;2024-03-23T11:08:30;1.40;;;0.45;;
7783;SDS011;19359;51.402;6.778;2024-03-23T11:11:13;0.40;;;0.40;;
7783;SDS011;19359;51.402;6.778;2024-03-23T11:13:41;0.40;;;0.40;;
7783;SDS011;19359;51.402;6.778;2024-03-23T11:16:13;0.68;;;0.65;;
7783;SDS011;19359;51.402;6.778;2024-03-23T11:18:41;2.92;;;0.30;;
7783;SDS011;19359;51.402;6.778;2024-03-23T11:21:07;0.35;;;0.35;;
7783;SDS011;19359;51.402;6.778;2024-03-23T11:23:35;0.45;;;0.40;;
7783;SDS011;19359;51.402;6.778;2024-03-23T11:26:01;5.00;;;0.70;;
7783;SDS011;19359;51.402;6.778;2024-03-23T11:28:29;0.82;;;0.50;;
7783;SDS011;19359;51.402;6.778;2024-03-23T11:30:55;1.13;;;0.68;;
7783;SDS011;19359;51.402;6.778;2024-03-23T11:33:21;1.08;;;1.00;;
7783;SDS011;19359;51.402;6.778;2024-03-23T11:35:48;3.08;;;0.70;;
7783;SDS011;19359;51.402;6.778;2024-03-23T11:38:16;1.27;;;0.40;;
7783;SDS011;19359;51.402;6.778;2024-03-23T11:40:45;0.60;;;0.52;;
7783;SDS011;19359;51.402;6.778;2024-03-23T11:43:14;0.93;;;0.80;;
7783;SDS011;19359;51.402;6.778;2024-03-23T11:45:42;0.30;;;0.30;;
7783;SDS011;19359;51.402;6.778;2024-03-23T11:48:10;0.35;;;0.35;;
7783;SDS011;19359;51.402;6.778;2024-03-23T11:50:38;0.75;;;0.47;;
7783;SDS011;19359;51.402;6.778;2024-03-23T11:53:12;0.10;;;0.10;;
7783;SDS011;19359;51.402;6.778;2024-03-23T11:55:41;2.80;;;0.50;;
7783;SDS011;19359;51.402;6.778;2024-03-23T11:58:10;0.15;;;0.15;;
7783;SDS011;19359;51.402;6.778;2024-03-23T12:00:35;0.10;;;0.10;;
7783;SDS011;19359;51.402;6.778;2024-03-23T12:03:02;0.10;;;0.10;;
7783;SDS011;19359;51.402;6.778;2024-03-23T12:05:29;1.55;;;0.22;;
7783;SDS011;19359;51.402;6.778;2024-03-23T12:07:55;2.67;;;0.30;;
7783;SDS011;19359;51.402;6.778;2024-03-23T12:10:43;1.17;;;0.47;;
7783;SDS011;19359;51.402;6.778;2024-03-23T12:13:12;0.20;;;0.20;;
7783;SDS011;19359;51.402;6.778;2024-03-23T12:15:40;0.30;;;0.25;;
7783;SDS011;19359;51.402;6.778;2024-03-23T12:18:07;0.30;;;0.30;;
7783;SDS011;19359;51.402;6.778;2024-03-23T12:20:33;3.33;;;0.52;;
7783;SDS011;19359;51.402;6.778;2024-03-23T12:23:06;0.32;;;0.32;;
7783;SDS011;19359;51.402;6.778;2024-03-23T12:25:34;0.75;;;0.50;;
7783;SDS011;19359;51.402;6.778;2024-03-23T12:28:01;0.60;;;0.50;;
7783;SDS011;19359;51.402;6.778;2024-03-23T12:30:28;0.80;;;0.80;;
7783;SDS011;19359;51.402;6.778;2024-03-23T12:32:55;0.75;;;0.55;;
7783;SDS011;19359;51.402;6.778;2024-03-23T12:35:21;2.35;;;0.20;;
7783;SDS011;19359;51.402;6.778;2024-03-23T12:37:48;3.75;;;0.60;;
7783;SDS011;19359;51.402;6.778;2024-03-23T12:40:14;2.75;;;0.75;;
7783;SDS011;19359;51.402;6.778;2024-03-23T12:42:41;0.85;;;0.70;;
7783;SDS011;19359;51.402;6.778;2024-03-23T12:45:07;0.30;;;0.30;;
7783;SDS011;19359;51.402;6.778;2024-03-23T12:47:35;3.63;;;0.25;;
7783;SDS011;19359;51.402;6.778;2024-03-23T12:50:01;0.20;;;0.20;;
7783;SDS011;19359;51.402;6.778;2024-03-23T12:52:28;0.25;;;0.25;;
7783;SDS011;19359;51.402;6.778;2024-03-23T12:54:55;1.65;;;0.20;;
7783;SDS011;19359;51.402;6.778;2024-03-23T12:57:22;0.57;;;0.20;;
7783;SDS011;19359;51.402;6.778;2024-03-23T12:59:49;0.20;;;0.20;;
7783;SDS011;19359;51.402;6.778;2024-03-23T13:02:17;1.05;;;0.30;;
7783;SDS011;19359;51.402;6.778;2024-03-23T13:04:45;0.25;;;0.20;;
7783;SDS011;19359;51.402;6.778;2024-03-23T13:07:12;1.17;;;0.50;;
7783;SDS011;19359;51.402;6.778;2024-03-23T13:09:38;0.22;;;0.22;;
7783;SDS011;19359;51.402;6.778;2024-03-23T13:14:33;2.65;;;1.02;;
7783;SDS011;19359;51.402;6.778;2024-03-23T13:17:00;1.27;;;0.57;;
7783;SDS011;19359;51.402;6.778;2024-03-23T13:19:27;1.33;;;0.55;;
7783;SDS011;19359;51.402;6.778;2024-03-23T13:21:57;5.22;;;0.65;;
7783;SDS011;19359;51.402;6.778;2024-03-23T13:27:07;0.90;;;0.50;;
7783;SDS011;19359;51.402;6.778;2024-03-23T13:29:35;0.47;;;0.20;;
7783;SDS011;19359;51.402;6.778;2024-03-23T13:32:02;0.93;;;0.20;;
7783;SDS011;19359;51.402;6.778;2024-03-23T13:34:30;1.35;;;0.30;;
7783;SDS011;19359;51.402;6.778;2024-03-23T13:36:57;0.20;;;0.20;;
7783;SDS011;19359;51.402;6.778;2024-03-23T13:39:24;0.45;;;0.32;;
7783;SDS011;19359;51.402;6.778;2024-03-23T13:41:50;1.10;;;0.20;;
7783;SDS011;19359;51.402;6.778;2024-03-23T13:44:17;0.73;;;0.32;;
7783;SDS011;19359;51.402;6.778;2024-03-23T13:46:43;3.40;;;0.47;;
7783;SDS011;19359;51.402;6.778;2024-03-23T13:49:11;0.32;;;0.20;;
7783;SDS011;19359;51.402;6.778;2024-03-23T13:51:49;0.30;;;0.30;;
7783;SDS011;19359;51.402;6.778;2024-03-23T13:54:17;1.95;;;0.43;;
7783;SDS011;19359;51.402;6.778;2024-03-23T13:56:43;3.63;;;0.30;;
7783;SDS011;19359;51.402;6.778;2024-03-23T13:59:10;0.52;;;0.38;;
7783;SDS011;19359;51.402;6.778;2024-03-23T14:01:37;3.17;;;0.43;;
7783;SDS011;19359;51.402;6.778;2024-03-23T14:04:04;4.45;;;0.30;;
7783;SDS011;19359;51.402;6.778;2024-03-23T14:06:29;0.35;;;0.20;;
7783;SDS011;19359;51.402;6.778;2024-03-23T14:08:56;0.68;;;0.30;;
7783;SDS011;19359;51.402;6.778;2024-03-23T14:11:23;0.40;;;0.10;;
7783;SDS011;19359;51.402;6.778;2024-03-23T14:13:51;0.17;;;0.10;;
7783;SDS011;19359;51.402;6.778;2024-03-23T14:16:18;1.67;;;0.40;;
7783;SDS011;19359;51.402;6.778;2024-03-23T14:18:45;1.85;;;0.20;;
7783;SDS011;19359;51.402;6.778;2024-03-23T14:21:11;1.10;;;0.35;;
7783;SDS011;19359;51.402;6.778;2024-03-23T14:23:38;4.22;;;0.52;;
7783;SDS011;19359;51.402;6.778;2024-03-23T14:26:05;2.28;;;0.25;;
7783;SDS011;19359;51.402;6.778;2024-03-23T14:28:34;0.47;;;0.35;;
7783;SDS011;19359;51.402;6.778;2024-03-23T14:31:00;1.65;;;0.32;;
7783;SDS011;19359;51.402;6.778;2024-03-23T14:33:28;2.28;;;0.40;;
7783;SDS011;19359;51.402;6.778;2024-03-23T14:35:54;0.90;;;0.47;;
7783;SDS011;19359;51.402;6.778;2024-03-23T14:38:22;3.15;;;0.82;;
7783;SDS011;19359;51.402;6.778;2024-03-23T14:40:48;1.75;;;0.77;;
7783;SDS011;19359;51.402;6.778;2024-03-23T14:43:15;0.82;;;0.40;;
7783;SDS011;19359;51.402;6.778;2024-03-23T14:45:45;1.15;;;0.40;;
7783;SDS011;19359;51.402;6.778;2024-03-23T14:48:30;2.45;;;0.50;;
7783;SDS011;19359;51.402;6.778;2024-03-23T14:50:56;0.88;;;0.60;;
7783;SDS011;19359;51.402;6.778;2024-03-23T14:53:23;1.75;;;0.82;;
7783;SDS011;19359;51.402;6.778;2024-03-23T14:55:48;0.57;;;0.38;;
7783;SDS011;19359;51.402;6.778;2024-03-23T14:58:15;0.80;;;0.60;;
7783;SDS011;19359;51.402;6.778;2024-03-23T15:00:42;3.00;;;0.25;;
7783;SDS011;19359;51.402;6.778;2024-03-23T15:03:09;0.50;;;0.35;;
7783;SDS011;19359;51.402;6.778;2024-03-23T15:05:35;1.10;;;0.40;;
7783;SDS011;19359;51.402;6.778;2024-03-23T15:08:02;4.25;;;0.60;;
7783;SDS011;19359;51.402;6.778;2024-03-23T15:10:29;0.40;;;0.30;;
7783;SDS011;19359;51.402;6.778;2024-03-23T15:12:55;0.52;;;0.52;;
7783;SDS011;19359;51.402;6.778;2024-03-23T15:15:21;4.90;;;0.20;;
7783;SDS011;19359;51.402;6.778;2024-03-23T15:17:50;1.10;;;0.47;;
7783;SDS011;19359;51.402;6.778;2024-03-23T15:20:16;0.82;;;0.35;;
7783;SDS011;19359;51.402;6.778;2024-03-23T15:22:43;0.20;;;0.20;;
7783;SDS011;19359;51.402;6.778;2024-03-23T15:25:09;1.65;;;0.43;;
7783;SDS011;19359;51.402;6.778;2024-03-23T15:27:35;0.50;;;0.40;;
7783;SDS011;19359;51.402;6.778;2024-03-23T15:30:01;0.77;;;0.60;;
7783;SDS011;19359;51.402;6.778;2024-03-23T15:32:28;0.73;;;0.30;;
7783;SDS011;19359;51.402;6.778;2024-03-23T15:34:55;1.42;;;0.40;;
7783;SDS011;19359;51.402;6.778;2024-03-23T15:37:22;1.95;;;0.55;;
7783;SDS011;19359;51.402;6.778;2024-03-23T15:39:47;3.75;;;0.50;;
7783;SDS011;19359;51.402;6.778;2024-03-23T15:42:14;0.90;;;0.28;;
7783;SDS011;19359;51.402;6.778;2024-03-23T15:44:40;5.97;;;0.30;;
7783;SDS011;19359;51.402;6.778;2024-03-23T15:47:07;0.55;;;0.40;;
7783;SDS011;19359;51.402;6.778;2024-03-23T15:49:33;0.55;;;0.40;;
7783;SDS011;19359;51.402;6.778;2024-03-23T15:52:01;7.55;;;0.68;;
7783;SDS011;19359;51.402;6.778;2024-03-23T15:54:27;3.25;;;0.40;;
7783;SDS011;19359;51.402;6.778;2024-03-23T15:56:53;1.25;;;0.80;;